Joiner, AR (72350)

3:49 AM CST on December 03, 2016 (GMT -0600)
Dolan Ridge | | Change Station

Elev 433 ft 35.47 °N, 89.90 °W | Updated 5 seconds ago

Clear
Clear
44.9 °F
Feels Like 45 °F
N
0.0
Wind Variable Wind from ENE
Gusts 0.0 mph

Today
High -- | Low -- °F
--% Chance of Precip.
Yesterday
High -- | Low -- °F
Precip. -- in
Pressure 30.31 in
Visibility 10.0 miles
Clouds Clear
Windchill 45 °F
Dew Point 36 °F
Humidity 72%
Rainfall 0.00 in
Snow Depth Not available.
6:53 AM 4:47 PM
Waxing Crescent, 14% visible
METAR KNQA 030935Z AUTO VRB04KT 10SM CLR 08/01 A3031 RMK
Pressure 30.31 in
Visibility 10.0 miles
Clouds Clear
Windchill 45 °F
Dew Point 36 °F
Humidity 72%
Rainfall 0.00 in
Snow Depth Not available.
6:53 AM 4:47 PM
Waxing Crescent, 14% visible
METAR KNQA 030935Z AUTO VRB04KT 10SM CLR 08/01 A3031 RMK

10-Day Weather Forecast

Almanac

Astronomy

Dec. 03, 2016 Rise Set
Actual Time
Civil Twilight
Nautical Twilight
Astronomical Twilight
Moon
Length of Visible Light
Length of Day
Tomorrow will be .
, % of the Moon is Illuminated

Today's Extremes

State Highs State Lows

Community

WunderPhotos

Upload Photos

1,955,434 photos uploaded!

WunderBlog® & News

Nearby

Air Quality

  Air Quality AQ Index Pollutant
Not available.

Snow Depth

Station Depth Elevation

Earthquake Activity

City Distance Mag. Time & Date
Minimum magnitude displayed is 2.5.

Coastal Water Temperatures

Place Temperature

Stations

Nearby Weather Stations

Station Location Temp. Windchill Dew Point Humidity Wind Precip. Elev Updated Type
                   

Watches & Warnings

There are currently no watches in effect.